Time;durP1;ratioP1;P1;durP2;ratioP2;P2;SDS_P1;SDS_P2;PMS_P1;PMS_P2;Temp;Humidity;BMP_temperature;BMP_pressure;BME280_temperature;BME280_humidity;BME280_pressure;Samples;Min_cycle;Max_cycle;Signal;HPM_P1;HPM_P2
2021/12/18 00:00:07;;;;;;;10.20;2.80;;;5.60;99.90;;;;;;5147251;28;21500;-51
2021/12/18 00:02:37;;;;;;;2.80;2.60;;;5.50;99.90;;;;;;5164349;28;20205;-52
2021/12/18 00:05:08;;;;;;;4.23;2.87;;;5.60;99.90;;;;;;5119168;28;20492;-52
2021/12/18 00:07:38;;;;;;;8.30;3.43;;;5.50;99.90;;;;;;5129175;28;20220;-51
2021/12/18 00:10:09;;;;;;;3.17;2.87;;;5.50;99.90;;;;;;5152850;28;20198;-53
2021/12/18 00:12:47;;;;;;;4.70;4.30;;;5.60;99.90;;;;;;5135385;28;20200;-51
2021/12/18 00:15:20;;;;;;;9.87;4.97;;;5.50;99.90;;;;;;5154946;28;20201;-53
2021/12/18 00:17:51;;;;;;;10.97;6.53;;;5.60;99.90;;;;;;5165720;28;20447;-52
2021/12/18 00:20:24;;;;;;;5.90;4.00;;;5.60;99.90;;;;;;5159565;28;20439;-52
2021/12/18 00:22:55;;;;;;;5.13;3.30;;;5.70;99.90;;;;;;5147252;28;20772;-52
2021/12/18 00:25:25;;;;;;;6.40;3.43;;;5.70;99.90;;;;;;5168560;28;20451;-53
2021/12/18 00:27:56;;;;;;;8.17;4.20;;;5.70;99.90;;;;;;5166218;28;20444;-53
2021/12/18 00:30:27;;;;;;;5.50;4.10;;;5.70;99.90;;;;;;5151805;28;20661;-50
2021/12/18 00:32:57;;;;;;;5.13;3.90;;;5.70;99.90;;;;;;5160276;28;20474;-50
2021/12/18 00:35:28;;;;;;;6.30;4.87;;;5.60;99.90;;;;;;5152044;28;20264;-51
2021/12/18 00:38:00;;;;;;;5.13;4.63;;;5.70;99.90;;;;;;5144806;28;20614;-52
2021/12/18 00:40:44;;;;;;;8.90;4.97;;;5.70;99.90;;;;;;5140174;28;20784;-53
2021/12/18 00:43:37;;;;;;;5.07;4.00;;;5.70;99.90;;;;;;5163265;28;20438;-51
2021/12/18 00:46:07;;;;;;;7.40;3.90;;;5.70;99.90;;;;;;5167658;28;20553;-52
2021/12/18 00:48:38;;;;;;;9.73;6.10;;;5.70;99.90;;;;;;5152199;28;20952;-51
2021/12/18 00:51:08;;;;;;;5.60;4.73;;;5.70;99.90;;;;;;5168260;28;20232;-52
2021/12/18 00:53:39;;;;;;;13.80;5.33;;;5.70;99.90;;;;;;5156792;28;20200;-51
2021/12/18 00:56:09;;;;;;;6.07;4.30;;;5.80;99.90;;;;;;5147127;28;20261;-51
2021/12/18 00:58:40;;;;;;;8.13;4.33;;;5.70;99.90;;;;;;5159154;28;20541;-51
2021/12/18 01:01:11;;;;;;;6.83;3.77;;;5.60;99.90;;;;;;5141280;28;20206;-51
2021/12/18 01:03:43;;;;;;;7.90;5.03;;;5.60;99.90;;;;;;5123968;28;20192;-51
2021/12/18 01:06:19;;;;;;;5.13;4.40;;;5.70;99.90;;;;;;5152569;28;20487;-51
2021/12/18 01:08:53;;;;;;;7.63;3.77;;;5.60;99.90;;;;;;5162472;28;20767;-51
2021/12/18 01:14:18;;;;;;;4.50;3.40;;;5.60;99.90;;;;;;5141608;28;20452;-50
2021/12/18 01:24:56;;;;;;;3.00;2.83;;;5.70;99.90;;;;;;5148997;28;20436;-51
2021/12/18 01:27:27;;;;;;;2.93;2.67;;;5.70;99.90;;;;;;5131733;28;20449;-52
2021/12/18 01:29:58;;;;;;;2.77;2.60;;;5.70;99.90;;;;;;5152466;28;20719;-51
2021/12/18 01:32:29;;;;;;;7.70;6.17;;;5.70;99.90;;;;;;5150219;28;20191;-52
2021/12/18 01:35:01;;;;;;;2.70;2.53;;;5.70;99.90;;;;;;5156925;28;20737;-53
2021/12/18 01:37:32;;;;;;;4.33;3.30;;;5.60;99.90;;;;;;5137645;28;20511;-50
2021/12/18 01:40:04;;;;;;;2.90;2.67;;;5.60;99.90;;;;;;5129813;28;20524;-51
2021/12/18 01:53:13;;;;;;;3.23;2.93;;;5.60;99.90;;;;;;5165962;28;20482;-50
2021/12/18 01:55:44;;;;;;;2.70;2.50;;;5.50;99.90;;;;;;5140332;28;20797;-48
2021/12/18 01:58:19;;;;;;;3.40;2.97;;;5.60;99.90;;;;;;5165520;28;20177;-51
2021/12/18 02:00:52;;;;;;;4.70;3.20;;;5.60;99.90;;;;;;5164175;28;20543;-48
2021/12/18 02:03:23;;;;;;;3.93;2.50;;;5.50;99.90;;;;;;5145099;28;20537;-49
2021/12/18 02:05:54;;;;;;;3.13;2.53;;;5.50;99.90;;;;;;5159030;28;20527;-52
2021/12/18 02:08:27;;;;;;;2.73;2.53;;;5.50;99.90;;;;;;5161818;28;20420;-51
2021/12/18 02:11:09;;;;;;;5.10;3.40;;;5.50;99.90;;;;;;5155416;28;20235;-49
2021/12/18 02:21:58;;;;;;;4.90;2.90;;;5.60;99.90;;;;;;5155810;28;20555;-49
2021/12/18 02:24:31;;;;;;;2.67;2.57;;;5.70;99.90;;;;;;5161117;28;20985;-50
2021/12/18 02:27:02;;;;;;;3.03;2.83;;;5.60;99.90;;;;;;5156475;28;20429;-51
2021/12/18 02:29:36;;;;;;;3.00;2.80;;;5.70;99.90;;;;;;5154338;28;20416;-51
2021/12/18 02:32:08;;;;;;;3.53;3.23;;;5.70;99.90;;;;;;5159519;28;20715;-49
2021/12/18 02:34:40;;;;;;;3.43;3.07;;;5.70;99.90;;;;;;5139337;28;20471;-49
2021/12/18 02:37:13;;;;;;;4.00;3.60;;;5.70;99.90;;;;;;5164837;28;20432;-52
2021/12/18 02:40:43;;;;;;;3.87;3.07;;;5.70;99.90;;;;;;5157951;28;20435;-49
2021/12/18 02:42:34;;;;;;;3.13;3.03;;;5.70;99.90;;;;;;5163775;28;20839;-50
2021/12/18 02:45:07;;;;;;;4.00;3.70;;;5.70;99.90;;;;;;5160326;28;20535;-50
2021/12/18 02:47:37;;;;;;;3.67;3.23;;;5.60;99.90;;;;;;5155382;28;20440;-49
2021/12/18 02:50:08;;;;;;;4.97;3.93;;;5.60;99.90;;;;;;5142996;28;20836;-51
2021/12/18 02:52:39;;;;;;;4.90;3.37;;;5.50;99.90;;;;;;5157004;28;20196;-49
2021/12/18 02:55:09;;;;;;;4.30;3.90;;;5.50;99.90;;;;;;5156898;28;20205;-50
2021/12/18 02:57:40;;;;;;;10.10;4.00;;;5.50;99.90;;;;;;5150289;28;20174;-50
2021/12/18 03:00:11;;;;;;;3.60;3.30;;;5.50;99.90;;;;;;5160891;28;20699;-48
2021/12/18 03:02:44;;;;;;;3.60;3.30;;;5.50;99.90;;;;;;5145961;28;20184;-49
2021/12/18 03:05:22;;;;;;;4.17;3.97;;;5.60;99.90;;;;;;5147062;28;20427;-50
2021/12/18 03:08:00;;;;;;;2.90;2.80;;;5.60;99.90;;;;;;5146041;28;20431;-50
2021/12/18 03:19:16;;;;;;;3.53;3.33;;;5.70;99.90;;;;;;5149614;28;20589;-50
2021/12/18 03:24:43;;;;;;;3.53;3.33;;;5.60;99.90;;;;;;5162380;28;20431;-49
2021/12/18 03:27:14;;;;;;;4.20;3.90;;;5.70;99.90;;;;;;5160214;28;20512;-49
2021/12/18 03:29:44;;;;;;;3.40;3.20;;;5.70;99.90;;;;;;5162717;28;20507;-48
2021/12/18 03:32:15;;;;;;;3.57;3.33;;;5.60;99.90;;;;;;5156719;28;20195;-50
2021/12/18 03:34:46;;;;;;;5.77;4.17;;;5.70;99.90;;;;;;5122745;28;20576;-50
2021/12/18 03:37:17;;;;;;;5.10;3.40;;;5.70;99.90;;;;;;5137283;28;20189;-49
2021/12/18 03:39:49;;;;;;;4.23;3.93;;;5.70;99.90;;;;;;5147764;28;20280;-50
2021/12/18 03:42:20;;;;;;;3.10;2.90;;;5.70;99.90;;;;;;5164524;28;20466;-49
2021/12/18 03:44:50;;;;;;;4.07;3.87;;;5.70;99.90;;;;;;5167836;28;20485;-49
2021/12/18 03:47:21;;;;;;;3.53;3.20;;;5.70;99.90;;;;;;5149694;28;20181;-49
2021/12/18 03:49:51;;;;;;;4.70;3.40;;;5.70;99.90;;;;;;5147973;28;20207;-49
2021/12/18 03:52:22;;;;;;;4.67;4.30;;;5.60;99.90;;;;;;5150156;28;20501;-50
2021/12/18 03:54:53;;;;;;;3.40;3.20;;;5.60;99.90;;;;;;5169034;28;20185;-50
2021/12/18 03:57:23;;;;;;;4.23;3.87;;;5.60;99.90;;;;;;5149760;28;20442;-50
2021/12/18 03:59:54;;;;;;;4.30;4.00;;;5.70;99.90;;;;;;5149916;28;20205;-49
2021/12/18 04:02:25;;;;;;;4.33;3.93;;;5.70;99.90;;;;;;5151052;28;20188;-49
2021/12/18 04:04:55;;;;;;;6.97;4.73;;;5.70;99.90;;;;;;5165656;28;20181;-49
2021/12/18 04:07:26;;;;;;;5.00;3.50;;;5.70;99.90;;;;;;5151557;28;20208;-50
2021/12/18 04:09:56;;;;;;;4.83;4.23;;;5.60;99.90;;;;;;5146237;28;20732;-49
2021/12/18 04:12:27;;;;;;;4.30;3.90;;;5.60;99.90;;;;;;5145839;28;20178;-49
2021/12/18 04:14:57;;;;;;;4.60;4.20;;;5.60;99.90;;;;;;5145369;28;20195;-49
2021/12/18 04:17:28;;;;;;;5.83;3.47;;;5.60;99.90;;;;;;5161303;28;20240;-49
2021/12/18 04:19:58;;;;;;;5.50;5.00;;;5.60;99.90;;;;;;5138588;28;20204;-50
2021/12/18 04:22:29;;;;;;;3.53;3.33;;;5.60;99.90;;;;;;5156621;28;20566;-50
2021/12/18 04:24:59;;;;;;;4.47;3.90;;;5.60;99.90;;;;;;5148792;28;20215;-50
2021/12/18 04:27:30;;;;;;;4.43;3.97;;;5.60;99.90;;;;;;5158934;28;20189;-49
2021/12/18 04:30:01;;;;;;;5.10;4.00;;;5.60;99.90;;;;;;5165592;28;20300;-49
2021/12/18 04:32:31;;;;;;;12.70;4.33;;;5.60;99.90;;;;;;5134910;28;20201;-50
2021/12/18 04:35:02;;;;;;;5.43;4.03;;;5.60;99.90;;;;;;5166057;28;20606;-49
2021/12/18 04:37:33;;;;;;;6.00;3.70;;;5.60;99.90;;;;;;5159064;28;20192;-49
2021/12/18 04:40:05;;;;;;;4.13;3.83;;;5.60;99.90;;;;;;5142050;28;20541;-50
2021/12/18 04:42:35;;;;;;;9.70;3.60;;;5.60;99.90;;;;;;5165989;28;20258;-49
2021/12/18 04:45:07;;;;;;;5.00;4.57;;;5.60;99.90;;;;;;5166905;28;20983;-49
2021/12/18 04:47:37;;;;;;;4.73;4.30;;;5.60;99.90;;;;;;5159203;28;20545;-49
2021/12/18 04:50:08;;;;;;;5.37;4.70;;;5.60;99.90;;;;;;5144585;28;20470;-49
2021/12/18 04:52:39;;;;;;;5.27;4.40;;;5.60;99.90;;;;;;5167457;28;20184;-48
2021/12/18 04:55:09;;;;;;;3.70;3.50;;;5.70;99.90;;;;;;5149544;28;20239;-49
2021/12/18 04:57:40;;;;;;;4.40;3.90;;;5.70;99.90;;;;;;5161452;28;20181;-49
2021/12/18 05:00:14;;;;;;;5.80;3.97;;;5.60;99.90;;;;;;5165098;28;20212;-49
2021/12/18 05:02:46;;;;;;;2.93;2.83;;;5.60;99.90;;;;;;5158511;28;20658;-49
2021/12/18 05:05:16;;;;;;;3.40;3.20;;;5.60;99.90;;;;;;5167022;28;20814;-50
2021/12/18 05:07:47;;;;;;;3.07;2.87;;;5.50;99.90;;;;;;5164327;28;20443;-48
2021/12/18 05:10:17;;;;;;;3.03;2.83;;;5.50;99.90;;;;;;5142083;28;20340;-51
2021/12/18 05:12:48;;;;;;;4.13;3.00;;;5.50;99.90;;;;;;5145447;28;20186;-49
2021/12/18 05:15:18;;;;;;;3.10;2.80;;;5.50;99.90;;;;;;5138424;28;20212;-49
2021/12/18 05:17:49;;;;;;;8.63;2.70;;;5.50;99.90;;;;;;5165081;28;20188;-50
2021/12/18 05:20:19;;;;;;;2.90;2.70;;;5.50;99.90;;;;;;5140793;28;20208;-48
2021/12/18 05:22:50;;;;;;;2.77;2.57;;;5.60;99.90;;;;;;5154094;28;20637;-49
2021/12/18 05:25:21;;;;;;;3.07;2.93;;;5.60;99.90;;;;;;5161041;28;20190;-49
2021/12/18 05:27:51;;;;;;;4.53;2.80;;;5.70;99.90;;;;;;5162690;28;20188;-49
2021/12/18 05:30:22;;;;;;;3.37;3.03;;;5.70;99.90;;;;;;5159100;28;20208;-49
2021/12/18 05:32:53;;;;;;;4.20;3.47;;;5.70;99.90;;;;;;5165391;28;20653;-49
2021/12/18 05:35:23;;;;;;;3.57;3.20;;;5.70;99.90;;;;;;5144220;28;20583;-50
2021/12/18 05:38:04;;;;;;;2.90;2.70;;;5.70;99.90;;;;;;5129121;28;20280;-51
2021/12/18 05:40:37;;;;;;;3.27;3.07;;;5.70;99.90;;;;;;5137114;28;20254;-49
2021/12/18 05:43:09;;;;;;;4.20;3.10;;;5.60;99.90;;;;;;5162101;28;20494;-49
2021/12/18 05:45:40;;;;;;;6.27;3.90;;;5.50;99.90;;;;;;5147667;28;20443;-50
2021/12/18 05:48:10;;;;;;;5.60;3.80;;;5.50;99.90;;;;;;5140714;28;20444;-49
2021/12/18 05:50:45;;;;;;;3.43;3.20;;;5.50;99.90;;;;;;5144969;28;20284;-49
2021/12/18 05:53:15;;;;;;;5.00;3.10;;;5.50;99.90;;;;;;5161365;28;20188;-49
2021/12/18 05:55:46;;;;;;;6.23;3.90;;;5.50;99.90;;;;;;5161316;28;20471;-49
2021/12/18 05:58:16;;;;;;;4.07;3.73;;;5.50;99.90;;;;;;5140069;28;20225;-49
2021/12/18 06:00:47;;;;;;;2.40;2.30;;;5.50;99.90;;;;;;5129930;28;20210;-49
2021/12/18 06:03:17;;;;;;;3.63;2.67;;;5.60;99.90;;;;;;5152719;28;20185;-50
2021/12/18 06:05:48;;;;;;;2.93;2.00;;;5.60;99.90;;;;;;5141536;28;20203;-49
2021/12/18 06:08:18;;;;;;;2.37;2.27;;;5.60;99.90;;;;;;5144748;28;20192;-49
2021/12/18 06:10:51;;;;;;;3.10;2.80;;;5.50;99.90;;;;;;5137906;28;20553;-49
2021/12/18 06:13:21;;;;;;;2.30;2.20;;;5.50;99.90;;;;;;5147767;28;20187;-49
2021/12/18 06:15:52;;;;;;;2.27;2.17;;;5.50;99.90;;;;;;5140344;28;20804;-49
2021/12/18 06:18:23;;;;;;;2.07;1.87;;;5.60;99.90;;;;;;5163304;28;20195;-49
2021/12/18 06:20:53;;;;;;;2.20;2.00;;;5.60;99.90;;;;;;5154540;28;20444;-50
2021/12/18 06:23:24;;;;;;;3.23;2.53;;;5.60;99.90;;;;;;5156408;28;20239;-49
2021/12/18 06:25:55;;;;;;;2.53;2.53;;;5.70;99.90;;;;;;5154775;28;20240;-50
2021/12/18 06:28:26;;;;;;;3.30;3.00;;;5.60;99.90;;;;;;5150799;28;20196;-49
2021/12/18 06:30:57;;;;;;;2.80;2.67;;;5.60;99.90;;;;;;5146756;28;20464;-50
2021/12/18 06:33:29;;;;;;;4.07;3.33;;;5.60;99.90;;;;;;5145419;28;20197;-50
2021/12/18 06:35:59;;;;;;;3.40;3.10;;;5.60;99.90;;;;;;5165328;28;20209;-50
2021/12/18 06:38:30;;;;;;;3.37;3.17;;;5.60;99.90;;;;;;5155059;28;20493;-48
2021/12/18 06:41:00;;;;;;;3.80;3.50;;;5.60;99.90;;;;;;5147699;28;20211;-49
2021/12/18 06:43:31;;;;;;;6.10;3.70;;;5.60;99.90;;;;;;5148370;28;20198;-49
2021/12/18 06:46:01;;;;;;;3.30;3.10;;;5.60;99.90;;;;;;5161751;28;20192;-50
2021/12/18 06:48:33;;;;;;;4.23;3.40;;;5.60;99.90;;;;;;5146239;28;20185;-50
2021/12/18 06:51:04;;;;;;;3.80;3.40;;;5.60;99.90;;;;;;5148001;28;20216;-49
2021/12/18 06:53:34;;;;;;;3.30;2.97;;;5.50;99.90;;;;;;5144925;28;20465;-50
2021/12/18 06:56:05;;;;;;;4.33;3.93;;;5.60;99.90;;;;;;5133823;28;20604;-49
2021/12/18 06:58:35;;;;;;;4.93;4.13;;;5.50;99.90;;;;;;5146230;28;20641;-49
2021/12/18 07:01:06;;;;;;;5.03;3.63;;;5.50;99.90;;;;;;5147507;28;20697;-49
2021/12/18 07:03:36;;;;;;;17.73;5.77;;;5.50;99.90;;;;;;5146012;28;20645;-49
2021/12/18 07:06:07;;;;;;;6.57;3.50;;;5.50;99.90;;;;;;5142856;28;20191;-50
2021/12/18 07:08:37;;;;;;;4.00;3.70;;;5.60;99.90;;;;;;5156165;28;20208;-50
2021/12/18 07:11:08;;;;;;;4.00;3.70;;;5.60;99.90;;;;;;5152013;28;20678;-50
2021/12/18 07:13:38;;;;;;;2.70;2.60;;;5.60;99.90;;;;;;5161287;28;20181;-50
2021/12/18 07:16:09;;;;;;;3.23;3.07;;;5.60;99.90;;;;;;5150188;28;20231;-50
2021/12/18 07:18:40;;;;;;;4.00;3.67;;;5.50;99.90;;;;;;5154458;28;20594;-49
2021/12/18 07:21:11;;;;;;;3.13;2.93;;;5.50;99.90;;;;;;5153152;28;20269;-50
2021/12/18 07:23:42;;;;;;;3.80;3.50;;;5.60;99.90;;;;;;5154301;28;20255;-50
2021/12/18 07:26:12;;;;;;;3.97;3.63;;;5.60;99.90;;;;;;5145910;28;20530;-49
2021/12/18 07:28:43;;;;;;;5.97;3.30;;;5.60;99.90;;;;;;5163182;28;20440;-50
2021/12/18 07:31:13;;;;;;;3.17;2.97;;;5.70;99.90;;;;;;5166974;28;20225;-50
2021/12/18 07:33:44;;;;;;;4.20;3.20;;;5.50;99.90;;;;;;5157973;28;20216;-50
2021/12/18 07:36:15;;;;;;;3.13;2.93;;;5.60;99.90;;;;;;5156039;28;20223;-51
2021/12/18 07:38:46;;;;;;;2.63;2.43;;;5.60;99.90;;;;;;5150357;28;20553;-51
2021/12/18 07:41:16;;;;;;;2.27;2.20;;;5.60;99.90;;;;;;5146974;28;20616;-49
2021/12/18 07:43:47;;;;;;;2.20;2.10;;;5.50;99.90;;;;;;5144687;28;20432;-50
2021/12/18 07:46:18;;;;;;;2.80;2.63;;;5.60;99.90;;;;;;5154913;28;20271;-49
2021/12/18 07:48:48;;;;;;;3.10;2.80;;;5.60;99.90;;;;;;5138286;28;20275;-50
2021/12/18 07:51:19;;;;;;;2.33;2.23;;;5.70;99.90;;;;;;5147186;28;20221;-50
2021/12/18 07:53:50;;;;;;;3.30;3.20;;;5.70;99.90;;;;;;5143645;28;20243;-50
2021/12/18 07:56:20;;;;;;;3.43;3.10;;;5.70;99.90;;;;;;5147202;28;20291;-49
2021/12/18 07:58:52;;;;;;;3.43;3.17;;;5.70;99.90;;;;;;5152993;28;20184;-50
2021/12/18 08:01:22;;;;;;;2.77;2.60;;;5.80;99.90;;;;;;5143569;28;20208;-50
2021/12/18 08:03:53;;;;;;;2.60;2.50;;;5.80;99.90;;;;;;5140983;28;20459;-50
2021/12/18 08:06:24;;;;;;;2.47;2.27;;;5.80;99.90;;;;;;5160390;28;20182;-51
2021/12/18 08:08:54;;;;;;;2.43;2.27;;;5.80;99.90;;;;;;5146772;28;20199;-50
2021/12/18 08:11:25;;;;;;;5.23;3.87;;;5.70;99.90;;;;;;5166193;28;20288;-49
2021/12/18 08:13:55;;;;;;;3.50;3.30;;;5.70;99.90;;;;;;5149444;28;20199;-51
2021/12/18 08:16:26;;;;;;;4.67;4.27;;;5.60;99.90;;;;;;5161567;28;20214;-50
2021/12/18 08:18:56;;;;;;;4.70;4.17;;;5.60;99.90;;;;;;5141129;28;20286;-51
2021/12/18 08:21:27;;;;;;;3.80;3.60;;;5.60;99.90;;;;;;5142923;28;20613;-49
2021/12/18 08:23:57;;;;;;;4.27;3.77;;;5.60;99.90;;;;;;5144733;28;20273;-50
2021/12/18 08:26:28;;;;;;;3.57;3.27;;;5.70;99.90;;;;;;5159885;28;20185;-52
2021/12/18 08:28:59;;;;;;;9.50;4.73;;;5.60;99.90;;;;;;5142153;28;20196;-50
2021/12/18 08:31:29;;;;;;;3.70;3.50;;;5.60;99.90;;;;;;5167755;28;20216;-49
2021/12/18 08:34:00;;;;;;;4.73;4.43;;;5.70;99.90;;;;;;5160896;28;20189;-50
2021/12/18 08:36:30;;;;;;;3.60;3.33;;;5.70;99.90;;;;;;5147412;28;20216;-51
2021/12/18 08:39:01;;;;;;;3.80;3.57;;;5.80;99.90;;;;;;5158587;28;20212;-49
2021/12/18 08:41:33;;;;;;;3.17;2.97;;;5.70;99.90;;;;;;5135108;28;20648;-49
2021/12/18 08:44:04;;;;;;;2.73;2.53;;;5.70;99.90;;;;;;5161780;28;20233;-53
2021/12/18 08:46:35;;;;;;;2.83;2.47;;;5.60;99.90;;;;;;5166820;28;20992;-51
2021/12/18 08:49:06;;;;;;;3.70;2.27;;;5.60;99.90;;;;;;5154955;28;20642;-49
2021/12/18 08:51:38;;;;;;;1.60;1.60;;;5.50;99.90;;;;;;5144540;28;20471;-49
2021/12/18 08:54:08;;;;;;;1.90;1.80;;;5.60;99.90;;;;;;5142263;28;20443;-49
2021/12/18 08:56:39;;;;;;;1.80;1.70;;;5.60;99.90;;;;;;5162857;28;20876;-49
2021/12/18 08:59:10;;;;;;;1.47;1.30;;;5.70;99.90;;;;;;5158470;28;20197;-51
2021/12/18 09:01:40;;;;;;;1.83;1.73;;;5.70;99.90;;;;;;5162451;28;20322;-50
2021/12/18 09:04:11;;;;;;;1.80;1.80;;;5.70;99.90;;;;;;5145103;28;20293;-50
2021/12/18 09:06:41;;;;;;;2.77;2.40;;;5.70;99.90;;;;;;5160330;28;20790;-50
2021/12/18 09:09:12;;;;;;;2.40;2.20;;;5.70;99.90;;;;;;5146429;28;20216;-50
2021/12/18 09:11:42;;;;;;;2.43;2.23;;;5.70;99.90;;;;;;5147844;28;20214;-50
2021/12/18 09:14:15;;;;;;;2.10;2.00;;;5.70;99.90;;;;;;5156239;28;20207;-50
2021/12/18 09:16:45;;;;;;;2.63;2.43;;;5.70;99.90;;;;;;5165379;28;20575;-51
2021/12/18 09:19:16;;;;;;;2.50;2.40;;;5.60;99.90;;;;;;5163381;28;20459;-50
2021/12/18 09:21:46;;;;;;;2.60;2.40;;;5.70;99.90;;;;;;5150486;28;20214;-50
2021/12/18 09:24:17;;;;;;;3.67;2.53;;;5.80;99.90;;;;;;5164253;28;20656;-51
2021/12/18 09:26:48;;;;;;;2.50;2.40;;;5.90;99.90;;;;;;5157148;28;20237;-51
2021/12/18 09:29:19;;;;;;;3.00;2.70;;;5.90;99.90;;;;;;5160489;28;20199;-50
2021/12/18 09:31:53;;;;;;;3.40;3.20;;;6.00;99.90;;;;;;5156433;28;20236;-50
2021/12/18 09:34:26;;;;;;;3.60;3.20;;;6.10;99.90;;;;;;5147609;28;20479;-51
2021/12/18 09:36:57;;;;;;;3.13;2.83;;;6.20;99.90;;;;;;5144257;28;20550;-51
2021/12/18 09:39:28;;;;;;;2.97;2.77;;;6.30;99.90;;;;;;5164668;28;20428;-49
2021/12/18 09:41:59;;;;;;;3.10;2.90;;;6.20;99.90;;;;;;5148548;28;20217;-49
2021/12/18 09:44:34;;;;;;;2.67;2.50;;;6.30;99.90;;;;;;5161096;28;20181;-49
2021/12/18 09:47:06;;;;;;;6.73;5.40;;;6.20;99.90;;;;;;5140401;28;20435;-49
2021/12/18 09:49:39;;;;;;;3.30;3.00;;;6.20;99.90;;;;;;5146287;28;20547;-53
2021/12/18 09:52:09;;;;;;;2.70;2.50;;;6.20;99.90;;;;;;5153816;28;20540;-52
2021/12/18 09:54:40;;;;;;;3.60;3.30;;;6.20;99.90;;;;;;5158092;28;20507;-51
2021/12/18 09:57:11;;;;;;;3.20;2.90;;;6.20;99.90;;;;;;5160698;28;20292;-51
2021/12/18 09:59:42;;;;;;;2.80;2.60;;;6.20;99.90;;;;;;5159454;28;20665;-52
2021/12/18 10:02:12;;;;;;;3.53;3.00;;;6.20;99.90;;;;;;5138205;28;20190;-50
2021/12/18 10:04:44;;;;;;;3.20;3.10;;;6.20;99.90;;;;;;5155367;28;20190;-52
2021/12/18 10:07:21;;;;;;;3.73;3.43;;;6.20;99.90;;;;;;5159294;28;20196;-50
2021/12/18 10:09:56;;;;;;;3.30;3.10;;;6.10;99.90;;;;;;5130096;28;20460;-50
2021/12/18 10:12:29;;;;;;;2.70;2.50;;;6.10;99.90;;;;;;5148637;28;20900;-50
2021/12/18 10:15:03;;;;;;;2.70;2.60;;;6.20;99.90;;;;;;5147102;28;20452;-50
2021/12/18 10:17:38;;;;;;;4.63;3.70;;;6.20;99.90;;;;;;5146650;28;20505;-51
2021/12/18 10:20:21;;;;;;;3.03;2.93;;;6.30;99.90;;;;;;5155956;28;20970;-50
2021/12/18 10:22:58;;;;;;;2.83;2.70;;;6.30;99.90;;;;;;5160798;28;20444;-50
2021/12/18 10:25:38;;;;;;;3.20;3.00;;;6.30;99.90;;;;;;5159760;28;20956;-50
2021/12/18 10:28:20;;;;;;;3.10;2.87;;;6.30;99.90;;;;;;5144119;28;20437;-51
2021/12/18 10:30:57;;;;;;;4.63;3.37;;;6.30;99.90;;;;;;5143318;28;20546;-51
2021/12/18 10:33:29;;;;;;;2.60;2.50;;;6.30;99.90;;;;;;5164986;28;20456;-51
2021/12/18 10:36:01;;;;;;;4.17;3.83;;;6.50;99.90;;;;;;5162996;28;20479;-50
2021/12/18 10:38:40;;;;;;;2.53;2.43;;;6.60;99.90;;;;;;5142001;28;20436;-53
2021/12/18 10:41:34;;;;;;;3.70;3.40;;;6.50;99.90;;;;;;5162007;28;20514;-52
2021/12/18 10:44:08;;;;;;;2.80;2.70;;;6.60;99.90;;;;;;5160291;28;20486;-51
2021/12/18 10:46:43;;;;;;;3.20;3.00;;;6.60;99.90;;;;;;5131031;28;20483;-51
2021/12/18 10:49:16;;;;;;;3.00;2.80;;;6.50;99.90;;;;;;5143707;28;20444;-51
2021/12/18 10:51:48;;;;;;;2.70;2.50;;;6.60;99.90;;;;;;5153521;28;20472;-53
2021/12/18 10:54:24;;;;;;;2.50;2.40;;;6.50;99.90;;;;;;5144080;28;20416;-51
2021/12/18 10:56:55;;;;;;;2.87;2.67;;;6.60;99.90;;;;;;5127403;28;20466;-50
2021/12/18 10:59:34;;;;;;;3.37;3.17;;;6.60;99.90;;;;;;5156954;28;20447;-49
2021/12/18 11:02:13;;;;;;;3.70;3.03;;;6.60;99.90;;;;;;5159693;28;20181;-51
2021/12/18 11:04:44;;;;;;;3.10;2.67;;;6.60;99.90;;;;;;5157532;28;20441;-51
2021/12/18 11:07:16;;;;;;;2.77;2.57;;;6.60;99.90;;;;;;5141014;28;20444;-50
2021/12/18 11:10:10;;;;;;;4.23;3.63;;;6.70;99.90;;;;;;5137063;28;20444;-50
2021/12/18 11:15:26;;;;;;;10.50;5.67;;;6.70;99.90;;;;;;5164597;28;20475;-51
2021/12/18 11:17:58;;;;;;;4.97;4.57;;;6.80;99.90;;;;;;5143212;28;20436;-51
2021/12/18 11:20:28;;;;;;;9.93;5.20;;;6.70;99.90;;;;;;5163225;28;20217;-50
2021/12/18 11:22:59;;;;;;;4.50;3.97;;;6.80;99.90;;;;;;5163038;28;20790;-50
2021/12/18 11:25:30;;;;;;;8.63;4.60;;;6.70;99.90;;;;;;5141845;28;20189;-51
2021/12/18 11:28:01;;;;;;;6.80;5.03;;;6.60;99.90;;;;;;5144205;28;20360;-51
2021/12/18 11:30:32;;;;;;;15.30;7.87;;;6.60;99.90;;;;;;5141099;28;20211;-50
2021/12/18 11:33:02;;;;;;;7.20;3.73;;;6.70;99.90;;;;;;5141582;28;20939;-50
2021/12/18 11:35:35;;;;;;;3.77;2.90;;;6.70;99.90;;;;;;5145476;28;20217;-50
2021/12/18 11:38:08;;;;;;;7.57;3.17;;;6.70;99.90;;;;;;5159439;28;20603;-50
2021/12/18 11:40:39;;;;;;;3.13;2.90;;;6.70;99.90;;;;;;5145175;28;20471;-51
2021/12/18 11:43:32;;;;;;;1.97;1.80;;;6.70;99.90;;;;;;5161526;28;20447;-50
2021/12/18 11:46:30;;;;;;;1.97;1.87;;;6.60;99.90;;;;;;5152767;28;20773;-52
2021/12/18 11:49:05;;;;;;;1.70;1.70;;;6.80;99.90;;;;;;5162654;28;20412;-50
2021/12/18 11:51:36;;;;;;;4.33;2.67;;;6.80;99.90;;;;;;5138451;28;20590;-51
2021/12/18 11:55:02;;;;;;;3.00;2.00;;;6.80;99.90;;;;;;5134884;28;20448;-50
2021/12/18 11:57:39;;;;;;;1.63;1.53;;;6.90;99.90;;;;;;5107139;28;20552;-52
2021/12/18 12:00:19;;;;;;;3.43;3.13;;;6.90;99.90;;;;;;5155693;28;20478;-49
2021/12/18 12:02:55;;;;;;;3.80;1.97;;;6.80;99.90;;;;;;5165006;28;20460;-51
2021/12/18 12:05:39;;;;;;;3.20;2.83;;;6.90;99.90;;;;;;5151626;28;20788;-52
2021/12/18 12:08:35;;;;;;;2.20;2.10;;;6.90;99.90;;;;;;5138861;28;20925;-51
2021/12/18 12:11:17;;;;;;;3.20;2.10;;;6.80;99.90;;;;;;5152489;28;20499;-53
2021/12/18 12:13:58;;;;;;;2.07;1.97;;;6.80;99.90;;;;;;5143622;28;20440;-51
2021/12/18 12:16:44;;;;;;;4.17;3.80;;;6.80;99.90;;;;;;5161612;28;20491;-53
2021/12/18 12:19:35;;;;;;;5.40;4.70;;;6.90;99.90;;;;;;5161402;28;20455;-52
2021/12/18 12:22:08;;;;;;;2.63;2.43;;;6.80;99.90;;;;;;5141033;28;20559;-52
2021/12/18 12:24:54;;;;;;;2.10;1.70;;;6.90;99.90;;;;;;5162901;28;20428;-51
2021/12/18 12:27:26;;;;;;;3.20;1.60;;;7.00;99.90;;;;;;5144761;28;20578;-53
2021/12/18 12:29:58;;;;;;;1.40;1.30;;;7.00;99.90;;;;;;5142455;28;20964;-51
2021/12/18 12:32:30;;;;;;;3.43;1.63;;;7.00;99.90;;;;;;5162247;28;20466;-52
2021/12/18 12:35:13;;;;;;;1.90;1.80;;;7.00;99.90;;;;;;5152865;28;23083;-51
2021/12/18 12:37:46;;;;;;;3.50;3.20;;;7.00;99.90;;;;;;5142403;28;21070;-51
2021/12/18 12:40:31;;;;;;;5.50;4.30;;;7.00;99.90;;;;;;5157427;28;20452;-51
2021/12/18 12:43:23;;;;;;;4.43;3.43;;;7.00;99.90;;;;;;5161032;28;20432;-53
2021/12/18 12:45:58;;;;;;;1.40;1.40;;;7.00;99.90;;;;;;5162581;28;20440;-52
2021/12/18 12:49:07;;;;;;;4.20;2.20;;;7.00;99.90;;;;;;5162352;28;20567;-52
2021/12/18 12:52:03;;;;;;;2.00;1.67;;;7.00;99.90;;;;;;5158764;28;20878;-50
2021/12/18 12:54:47;;;;;;;1.10;1.10;;;6.90;99.90;;;;;;5160035;28;20440;-53
2021/12/18 12:57:24;;;;;;;3.20;2.97;;;6.90;99.90;;;;;;5140460;28;20562;-51
2021/12/18 12:59:54;;;;;;;19.80;8.97;;;7.00;99.90;;;;;;5143460;28;20458;-52
2021/12/18 13:02:30;;;;;;;4.13;2.87;;;7.00;99.90;;;;;;5143042;28;20444;-52
2021/12/18 13:05:07;;;;;;;4.37;2.63;;;7.10;99.90;;;;;;5160719;28;20180;-52
2021/12/18 13:08:04;;;;;;;1.60;1.50;;;7.20;99.90;;;;;;5142246;28;20815;-51
2021/12/18 13:10:38;;;;;;;10.27;5.90;;;7.10;99.90;;;;;;5156541;28;20798;-52
2021/12/18 13:13:11;;;;;;;4.60;3.90;;;7.10;99.90;;;;;;5138149;28;21011;-51
2021/12/18 13:16:11;;;;;;;1.97;1.83;;;7.10;99.90;;;;;;5157416;28;20487;-52
2021/12/18 13:18:45;;;;;;;1.00;1.00;;;7.20;99.90;;;;;;5143886;28;20435;-52
2021/12/18 13:21:24;;;;;;;1.07;1.03;;;7.10;99.90;;;;;;5158405;28;20450;-52
2021/12/18 13:24:01;;;;;;;1.63;1.63;;;7.20;99.90;;;;;;5145712;28;20458;-51
2021/12/18 13:26:44;;;;;;;2.40;1.73;;;7.20;99.90;;;;;;5144303;28;20440;-53
2021/12/18 13:29:15;;;;;;;1.63;1.50;;;7.20;99.90;;;;;;5164049;28;20439;-53
2021/12/18 13:31:54;;;;;;;5.93;1.83;;;7.10;99.90;;;;;;5160269;28;20968;-50
2021/12/18 13:34:36;;;;;;;12.13;8.50;;;7.10;99.90;;;;;;5155445;28;20432;-52
2021/12/18 13:37:11;;;;;;;10.10;6.03;;;7.10;99.90;;;;;;5162979;28;20463;-49
2021/12/18 13:39:47;;;;;;;2.10;2.00;;;7.00;99.90;;;;;;5161248;28;20440;-54
2021/12/18 13:42:22;;;;;;;4.10;3.80;;;7.00;99.90;;;;;;5160612;28;20519;-51
2021/12/18 13:45:01;;;;;;;2.20;1.70;;;6.90;99.90;;;;;;5145822;28;20638;-51
2021/12/18 13:47:47;;;;;;;6.07;3.63;;;6.90;99.90;;;;;;5145579;28;20854;-52
2021/12/18 13:50:20;;;;;;;2.30;2.00;;;6.90;99.90;;;;;;5170885;23;20512;-52
2021/12/18 13:52:56;;;;;;;1.80;1.80;;;6.90;99.90;;;;;;5160470;28;20447;-53
2021/12/18 13:55:51;;;;;;;15.00;7.67;;;6.90;99.90;;;;;;5149124;28;20982;-53
2021/12/18 13:58:25;;;;;;;1.80;1.80;;;6.90;99.90;;;;;;5160437;28;20440;-53
2021/12/18 14:00:58;;;;;;;4.80;4.23;;;6.90;99.90;;;;;;5160730;28;20526;-53
2021/12/18 14:03:46;;;;;;;5.60;2.97;;;6.80;99.90;;;;;;5146730;28;20424;-51
2021/12/18 14:06:33;;;;;;;3.83;2.77;;;6.80;99.90;;;;;;5159939;28;20586;-53
2021/12/18 14:09:09;;;;;;;2.57;2.40;;;6.90;99.90;;;;;;5146053;28;20457;-53
2021/12/18 14:11:57;;;;;;;11.63;5.90;;;6.90;99.90;;;;;;5145613;28;20456;-52
2021/12/18 14:14:41;;;;;;;2.47;2.37;;;7.00;99.90;;;;;;5163770;28;20480;-53